createdAt,value
2022-07-25T00:01:56.844Z,4.82
2022-07-25T00:04:25.721Z,5.32
2022-07-25T00:06:53.812Z,7.97
2022-07-25T00:09:21.199Z,5.80
2022-07-25T00:11:48.914Z,6.55
2022-07-25T00:14:16.516Z,4.82
2022-07-25T00:16:44.234Z,4.72
2022-07-25T00:19:11.913Z,5.50
2022-07-25T00:21:39.347Z,4.53
2022-07-25T00:24:07.775Z,5.30
2022-07-25T00:26:40.004Z,6.95
2022-07-25T00:29:08.132Z,6.32
2022-07-25T00:31:35.940Z,5.95
2022-07-25T00:34:04.500Z,7.20
2022-07-25T00:36:33.068Z,5.20
2022-07-25T00:39:00.726Z,5.65
2022-07-25T00:41:28.389Z,6.78
2022-07-25T00:43:55.998Z,5.03
2022-07-25T00:46:23.932Z,5.95
2022-07-25T00:48:51.827Z,7.40
2022-07-25T00:51:22.534Z,5.85
2022-07-25T00:53:50.025Z,5.43
2022-07-25T00:56:17.730Z,6.53
2022-07-25T00:58:45.610Z,5.22
2022-07-25T01:01:13.058Z,6.22
2022-07-25T01:03:40.769Z,6.85
2022-07-25T01:06:08.952Z,7.72
2022-07-25T01:08:36.757Z,10.98
2022-07-25T01:11:05.779Z,5.90
2022-07-25T01:13:34.579Z,6.40
2022-07-25T01:16:02.173Z,6.47
2022-07-25T01:18:30.112Z,7.57
2022-07-25T01:20:57.803Z,5.47
2022-07-25T01:23:25.242Z,6.03
2022-07-25T01:25:53.174Z,7.60
2022-07-25T01:28:20.721Z,7.95
2022-07-25T01:30:48.266Z,6.90
2022-07-25T01:33:20.748Z,8.63
2022-07-25T01:35:48.761Z,7.53
2022-07-25T01:38:16.874Z,7.45
2022-07-25T01:40:44.830Z,6.60
2022-07-25T01:43:12.617Z,7.18
2022-07-25T01:45:40.169Z,6.40
2022-07-25T01:48:08.380Z,11.18
2022-07-25T01:50:36.422Z,7.80
2022-07-25T01:53:04.470Z,8.98
2022-07-25T01:55:32.253Z,5.57
2022-07-25T01:58:00.018Z,5.72
2022-07-25T02:00:29.414Z,5.70
2022-07-25T02:03:16.122Z,8.55
2022-07-25T02:05:43.590Z,7.90
2022-07-25T02:08:11.375Z,7.30
2022-07-25T02:10:39.554Z,6.75
2022-07-25T02:13:07.242Z,7.07
2022-07-25T02:15:35.856Z,7.05
2022-07-25T02:18:03.469Z,12.23
2022-07-25T02:20:31.584Z,7.32
2022-07-25T02:22:59.474Z,11.10
2022-07-25T02:25:26.916Z,8.20
2022-07-25T02:27:54.519Z,7.68
2022-07-25T02:30:22.977Z,7.53
2022-07-25T02:32:50.444Z,13.75
2022-07-25T02:35:18.004Z,8.27
2022-07-25T02:37:45.717Z,9.50
2022-07-25T02:40:13.407Z,7.30
2022-07-25T02:42:41.214Z,7.72
2022-07-25T02:45:09.317Z,9.07
2022-07-25T02:47:36.852Z,10.70
2022-07-25T02:50:05.220Z,11.23
2022-07-25T02:52:32.920Z,10.77
2022-07-25T02:55:04.885Z,8.75
2022-07-25T02:57:36.993Z,8.27
2022-07-25T03:00:06.697Z,6.65
2022-07-25T03:02:34.865Z,8.05
2022-07-25T03:05:04.073Z,8.10
2022-07-25T03:07:31.495Z,8.68
2022-07-25T03:09:58.948Z,5.82
2022-07-25T03:12:26.698Z,6.13
2022-07-25T03:14:54.121Z,8.05
2022-07-25T03:17:21.597Z,6.82
2022-07-25T03:19:49.280Z,7.22
2022-07-25T03:22:16.893Z,6.18
2022-07-25T03:24:44.493Z,8.38
2022-07-25T03:27:12.369Z,5.63
2022-07-25T03:29:39.798Z,6.93
2022-07-25T03:32:08.212Z,6.03
2022-07-25T03:34:36.505Z,11.00
2022-07-25T03:37:04.421Z,8.80
2022-07-25T03:39:33.944Z,5.38
2022-07-25T03:42:01.661Z,9.75
2022-07-25T03:44:29.279Z,8.00
2022-07-25T03:46:56.797Z,5.78
2022-07-25T03:49:24.699Z,9.90
2022-07-25T03:51:52.209Z,8.55
2022-07-25T03:54:19.669Z,12.68
2022-07-25T03:56:50.117Z,6.72
2022-07-25T03:59:20.185Z,7.63
2022-07-25T04:01:49.766Z,6.57
2022-07-25T04:04:19.013Z,5.82
2022-07-25T04:06:47.114Z,7.10
2022-07-25T04:09:15.777Z,6.60
2022-07-25T04:11:43.456Z,5.07
2022-07-25T04:14:11.951Z,6.00
2022-07-25T04:16:39.955Z,5.90
2022-07-25T04:19:08.642Z,5.18
2022-07-25T04:21:36.549Z,6.75
2022-07-25T04:24:04.377Z,4.65
2022-07-25T04:26:32.285Z,6.50
2022-07-25T04:29:02.987Z,6.15
2022-07-25T04:31:30.587Z,7.13
2022-07-25T04:33:59.370Z,6.40
2022-07-25T04:36:27.206Z,5.07
2022-07-25T04:38:54.637Z,6.80
2022-07-25T04:41:22.391Z,6.22
2022-07-25T04:43:49.812Z,4.88
2022-07-25T04:46:21.259Z,7.97
2022-07-25T04:48:50.108Z,8.20
2022-07-25T04:51:18.262Z,6.13
2022-07-25T04:53:46.457Z,6.90
2022-07-25T04:56:14.496Z,5.90
2022-07-25T04:58:42.243Z,8.48
2022-07-25T05:01:09.774Z,18.92
2022-07-25T05:03:37.418Z,13.63
2022-07-25T05:06:05.085Z,10.40
2022-07-25T05:08:32.562Z,16.35
2022-07-25T05:11:00.301Z,10.02
2022-07-25T05:13:27.934Z,10.27
2022-07-25T05:15:55.402Z,11.23
2022-07-25T05:18:24.800Z,15.02
2022-07-25T05:20:52.281Z,9.75
2022-07-25T05:23:20.240Z,7.93
2022-07-25T05:25:47.877Z,5.78
2022-07-25T05:28:15.320Z,10.50
2022-07-25T05:30:42.739Z,8.15
2022-07-25T05:33:10.448Z,8.20
2022-07-25T05:35:37.883Z,7.07
2022-07-25T05:38:05.435Z,9.73
2022-07-25T05:40:33.303Z,6.32
2022-07-25T05:43:03.174Z,6.93
2022-07-25T05:45:32.252Z,8.23
2022-07-25T05:47:59.975Z,5.82
2022-07-25T05:50:27.418Z,5.78
2022-07-25T05:52:54.996Z,6.43
2022-07-25T05:55:22.849Z,12.60
2022-07-25T05:57:50.234Z,11.48
2022-07-25T06:00:17.889Z,5.38
2022-07-25T06:02:45.547Z,6.05
2022-07-25T06:05:13.149Z,11.68
2022-07-25T06:07:41.279Z,7.47
2022-07-25T06:10:09.667Z,9.90
2022-07-25T06:12:37.142Z,4.35
2022-07-25T06:15:05.686Z,8.15
2022-07-25T06:17:33.578Z,7.35
2022-07-25T06:20:01.157Z,3.67
2022-07-25T06:22:31.200Z,7.55
2022-07-25T06:24:58.829Z,7.10
2022-07-25T06:27:29.525Z,5.57
2022-07-25T06:29:57.068Z,5.97
2022-07-25T06:32:24.808Z,5.50
2022-07-25T06:34:52.212Z,4.57
2022-07-25T06:37:19.683Z,7.47
2022-07-25T06:39:47.390Z,5.47
2022-07-25T06:42:14.810Z,5.28
2022-07-25T06:44:44.017Z,7.43
2022-07-25T06:47:14.386Z,6.85
2022-07-25T06:49:42.275Z,6.45
2022-07-25T06:52:10.143Z,7.03
2022-07-25T06:54:37.988Z,6.22
2022-07-25T06:57:06.284Z,7.25
2022-07-25T06:59:33.916Z,6.00
2022-07-25T07:02:02.193Z,7.38
2022-07-25T07:04:29.744Z,4.43
2022-07-25T07:06:57.161Z,7.28
2022-07-25T07:09:24.815Z,6.57
2022-07-25T07:11:52.246Z,6.25
2022-07-25T07:14:19.900Z,5.30
2022-07-25T07:16:47.659Z,5.07
2022-07-25T07:19:15.482Z,6.03
2022-07-25T07:21:43.346Z,6.07
2022-07-25T07:24:23.374Z,7.03
2022-07-25T07:26:53.749Z,8.75
2022-07-25T07:29:21.660Z,6.75
2022-07-25T07:31:49.459Z,6.78
2022-07-25T07:34:16.884Z,5.30
2022-07-25T07:36:44.654Z,6.13
2022-07-25T07:39:12.117Z,5.82
2022-07-25T07:41:39.664Z,5.43
2022-07-25T07:44:07.424Z,7.20
2022-07-25T07:46:35.016Z,3.45
2022-07-25T07:49:02.899Z,4.68
2022-07-25T07:51:30.712Z,8.68
2022-07-25T07:54:16.848Z,7.35
2022-07-25T07:56:45.724Z,6.85
2022-07-25T07:59:13.146Z,4.95
2022-07-25T08:01:40.674Z,5.55
2022-07-25T08:04:08.495Z,4.30
2022-07-25T08:06:36.660Z,5.60
2022-07-25T08:09:04.548Z,6.70
2022-07-25T08:11:32.496Z,5.43
2022-07-25T08:14:00.142Z,5.45
2022-07-25T08:16:27.860Z,2.50
2022-07-25T08:18:55.669Z,3.83
2022-07-25T08:21:23.169Z,7.65
2022-07-25T08:23:50.752Z,4.55
2022-07-25T08:26:18.423Z,4.03
2022-07-25T08:28:46.469Z,5.82
2022-07-25T08:31:14.752Z,3.25
2022-07-25T08:33:42.491Z,3.80
2022-07-25T08:36:11.530Z,4.00
2022-07-25T08:38:38.961Z,6.97
2022-07-25T08:41:08.473Z,12.52
2022-07-25T08:43:37.830Z,11.82
2022-07-25T08:46:06.261Z,25.10
2022-07-25T08:48:34.749Z,20.33
2022-07-25T08:51:02.758Z,21.70
2022-07-25T08:53:33.160Z,35.42
2022-07-25T08:56:11.202Z,31.38
2022-07-25T08:58:41.643Z,28.98
2022-07-25T09:01:09.561Z,17.80
2022-07-25T09:03:36.980Z,18.52
2022-07-25T09:06:21.522Z,13.95
2022-07-25T09:08:57.637Z,16.75
2022-07-25T09:11:35.952Z,12.77
2022-07-25T09:14:14.965Z,13.93
2022-07-25T09:16:45.226Z,12.07
2022-07-25T09:19:21.290Z,14.70
2022-07-25T09:22:07.025Z,13.98
2022-07-25T09:24:45.217Z,22.85
2022-07-25T09:27:13.372Z,24.80
2022-07-25T09:29:47.471Z,32.35
2022-07-25T09:32:19.881Z,25.27
2022-07-25T09:34:49.696Z,823.38
2022-07-25T09:37:19.522Z,468.98
2022-07-25T09:39:49.778Z,400.60
2022-07-25T09:42:28.457Z,317.90
2022-07-25T09:45:06.331Z,258.38
2022-07-25T09:47:36.551Z,219.10
2022-07-25T09:50:05.799Z,182.32
2022-07-25T09:52:33.800Z,145.25
2022-07-25T09:55:04.071Z,124.15
2022-07-25T09:57:31.638Z,90.22
2022-07-25T10:00:00.502Z,82.57
2022-07-25T10:02:49.890Z,62.42
2022-07-25T10:05:42.446Z,53.00
2022-07-25T10:08:11.783Z,49.00
2022-07-25T10:10:43.128Z,40.05
2022-07-25T10:13:28.395Z,39.60
2022-07-25T10:15:56.157Z,35.55
2022-07-25T10:18:27.603Z,26.30
2022-07-25T10:21:24.476Z,18.52
2022-07-25T10:24:05.562Z,17.33
2022-07-25T10:26:36.129Z,16.70
2022-07-25T10:29:09.323Z,16.02
2022-07-25T10:31:44.865Z,11.90
2022-07-25T10:34:15.870Z,13.80
2022-07-25T10:36:49.421Z,13.10
2022-07-25T10:39:19.390Z,12.98
2022-07-25T10:41:55.990Z,13.93
2022-07-25T10:44:23.908Z,6.80
2022-07-25T10:46:51.355Z,18.25
2022-07-25T10:49:32.166Z,40.85
2022-07-25T10:52:05.654Z,420.67
2022-07-25T10:54:36.130Z,520.30
2022-07-25T10:57:06.718Z,464.65
2022-07-25T10:59:36.837Z,378.17
2022-07-25T11:02:06.983Z,199.10
2022-07-25T11:04:35.115Z,128.15
2022-07-25T11:07:11.495Z,109.50
2022-07-25T11:09:41.003Z,86.53
2022-07-25T11:12:09.189Z,75.88
2022-07-25T11:14:42.670Z,54.67
2022-07-25T11:17:17.000Z,65.97
2022-07-25T11:19:55.469Z,54.80
2022-07-25T11:22:24.385Z,28.08
2022-07-25T11:24:52.098Z,32.78
2022-07-25T11:27:27.374Z,21.88
2022-07-25T11:30:16.455Z,16.20
2022-07-25T11:32:46.999Z,16.10
2022-07-25T11:35:15.760Z,16.65
2022-07-25T11:37:48.591Z,11.00
2022-07-25T11:40:19.266Z,8.50
2022-07-25T11:42:48.313Z,9.50
2022-07-25T11:45:23.131Z,8.07
2022-07-25T11:48:02.924Z,5.15
2022-07-25T11:50:31.774Z,6.53
2022-07-25T11:53:05.444Z,7.07
2022-07-25T11:55:37.253Z,5.75
2022-07-25T11:58:05.810Z,6.90
2022-07-25T12:00:40.701Z,3.88
2022-07-25T12:03:19.444Z,4.30
2022-07-25T12:05:49.153Z,8.10
2022-07-25T12:08:19.485Z,3.88
2022-07-25T12:10:48.481Z,4.13
2022-07-25T12:13:24.390Z,6.75
2022-07-25T12:15:52.964Z,5.60
2022-07-25T12:18:20.358Z,5.95
2022-07-25T12:20:47.818Z,4.57
2022-07-25T12:23:15.433Z,7.88
2022-07-25T12:25:45.442Z,5.07
2022-07-25T12:28:13.334Z,5.50
2022-07-25T12:30:44.650Z,5.38
2022-07-25T12:33:13.016Z,4.90
2022-07-25T12:35:41.996Z,2.38
2022-07-25T12:38:11.035Z,8.68
2022-07-25T12:40:38.882Z,3.78
2022-07-25T12:43:07.037Z,3.80
2022-07-25T12:45:35.424Z,4.90
2022-07-25T12:48:04.445Z,12.32
2022-07-25T12:50:32.003Z,3.53
2022-07-25T12:52:59.850Z,3.78
2022-07-25T12:55:27.838Z,4.90
2022-07-25T12:57:55.362Z,6.40
2022-07-25T13:00:23.287Z,3.33
2022-07-25T13:02:52.167Z,3.58
2022-07-25T13:05:19.969Z,4.57
2022-07-25T13:07:51.521Z,3.20
2022-07-25T13:10:19.729Z,2.47
2022-07-25T13:12:47.435Z,1.45
2022-07-25T13:15:15.660Z,2.63
2022-07-25T13:17:43.225Z,2.95
2022-07-25T13:20:11.294Z,3.05
2022-07-25T13:22:39.087Z,3.55
2022-07-25T13:25:06.991Z,2.40
2022-07-25T13:27:34.461Z,6.88
2022-07-25T13:30:02.409Z,2.88
2022-07-25T13:32:31.759Z,9.07
2022-07-25T13:34:59.690Z,2.20
2022-07-25T13:37:27.374Z,796.60
2022-07-25T13:39:55.362Z,451.23
2022-07-25T13:42:22.920Z,368.17
2022-07-25T13:44:50.750Z,283.92
2022-07-25T13:47:18.418Z,184.30
2022-07-25T13:49:45.862Z,127.78
2022-07-25T13:52:13.634Z,113.88
2022-07-25T13:54:41.254Z,81.78
2022-07-25T13:57:09.398Z,51.42
2022-07-25T13:59:37.169Z,53.60
2022-07-25T14:02:05.305Z,56.28
2022-07-25T14:04:33.016Z,39.78
2022-07-25T14:07:01.207Z,43.67
2022-07-25T14:09:28.812Z,32.85
2022-07-25T14:11:56.514Z,34.58
2022-07-25T14:14:24.252Z,22.70
2022-07-25T14:16:52.934Z,15.32
2022-07-25T14:19:20.740Z,17.27
2022-07-25T14:21:48.389Z,12.93
2022-07-25T14:24:15.910Z,11.82
2022-07-25T14:26:43.749Z,11.05
2022-07-25T14:29:12.163Z,6.25
2022-07-25T14:31:40.584Z,11.45
2022-07-25T14:34:08.586Z,10.65
2022-07-25T14:36:36.606Z,4.88
2022-07-25T14:39:05.540Z,7.88
2022-07-25T14:41:33.614Z,5.97
2022-07-25T14:44:01.402Z,3.88
2022-07-25T14:46:28.935Z,4.20
2022-07-25T14:48:56.493Z,5.43
2022-07-25T14:51:24.622Z,11.70
2022-07-25T14:53:53.431Z,5.05
2022-07-25T14:56:21.088Z,7.28
2022-07-25T14:58:48.953Z,8.85
2022-07-25T15:01:18.826Z,3.67
2022-07-25T15:03:46.625Z,3.58
2022-07-25T15:06:14.328Z,3.88
2022-07-25T15:08:42.764Z,4.70
2022-07-25T15:11:10.787Z,4.25
2022-07-25T15:13:38.420Z,5.18
2022-07-25T15:16:06.173Z,4.60
2022-07-25T15:18:46.988Z,4.05
2022-07-25T15:21:21.819Z,5.13
2022-07-25T15:23:49.653Z,2.95
2022-07-25T15:26:17.364Z,2.95
2022-07-25T15:28:45.027Z,4.90
2022-07-25T15:31:12.817Z,4.05
2022-07-25T15:33:40.291Z,3.15
2022-07-25T15:36:08.662Z,3.33
2022-07-25T15:38:36.280Z,3.25
2022-07-25T15:41:03.860Z,4.20
2022-07-25T15:43:33.334Z,4.13
2022-07-25T15:46:00.766Z,5.80
2022-07-25T15:48:29.107Z,2.95
2022-07-25T15:50:58.767Z,5.07
2022-07-25T15:53:26.610Z,8.85
2022-07-25T15:55:54.081Z,6.22
2022-07-25T15:58:21.812Z,9.75
2022-07-25T16:00:49.291Z,8.25
2022-07-25T16:03:17.125Z,14.00
2022-07-25T16:05:46.266Z,22.70
2022-07-25T16:08:14.057Z,13.38
2022-07-25T16:10:41.867Z,9.02
2022-07-25T16:13:09.686Z,15.85
2022-07-25T16:15:37.166Z,9.93
2022-07-25T16:18:04.607Z,12.40
2022-07-25T16:20:33.229Z,11.15
2022-07-25T16:23:01.385Z,7.32
2022-07-25T16:25:29.831Z,5.18
2022-07-25T16:27:58.744Z,3.58
2022-07-25T16:30:27.834Z,6.05
2022-07-25T16:32:55.619Z,4.75
2022-07-25T16:35:23.995Z,2.80
2022-07-25T16:37:51.461Z,2.88
2022-07-25T16:40:19.125Z,6.93
2022-07-25T16:42:50.200Z,8.02
2022-07-25T16:45:17.780Z,4.65
2022-07-25T16:47:45.340Z,4.93
2022-07-25T16:50:13.411Z,2.75
2022-07-25T16:52:40.967Z,4.07
2022-07-25T16:55:08.723Z,5.32
2022-07-25T16:57:37.887Z,3.38
2022-07-25T17:00:08.144Z,6.65
2022-07-25T17:02:35.799Z,5.15
2022-07-25T17:05:04.673Z,4.68
2022-07-25T17:07:32.618Z,8.15
2022-07-25T17:10:00.134Z,5.60
2022-07-25T17:12:28.008Z,4.25
2022-07-25T17:14:55.467Z,5.30
2022-07-25T17:17:23.215Z,4.38
2022-07-25T17:19:50.863Z,8.05
2022-07-25T17:22:18.416Z,8.85
2022-07-25T17:24:46.073Z,3.78
2022-07-25T17:27:14.607Z,6.65
2022-07-25T17:29:42.551Z,4.10
2022-07-25T17:32:10.840Z,5.80
2022-07-25T17:34:38.541Z,7.15
2022-07-25T17:37:06.985Z,4.95
2022-07-25T17:39:35.166Z,4.30
2022-07-25T17:42:07.131Z,8.35
2022-07-25T17:44:35.291Z,5.78
2022-07-25T17:47:04.031Z,8.50
2022-07-25T17:49:32.052Z,5.40
2022-07-25T17:51:59.572Z,4.50
2022-07-25T17:54:27.078Z,6.18
2022-07-25T17:56:54.835Z,4.32
2022-07-25T17:59:22.234Z,6.75
2022-07-25T18:01:50.330Z,4.50
2022-07-25T18:04:18.078Z,7.55
2022-07-25T18:06:45.773Z,9.30
2022-07-25T18:09:18.121Z,9.80
2022-07-25T18:11:46.598Z,10.88
2022-07-25T18:14:14.102Z,6.15
2022-07-25T18:16:41.678Z,8.65
2022-07-25T18:19:09.381Z,9.10
2022-07-25T18:21:36.843Z,8.98
2022-07-25T18:24:06.278Z,8.20
2022-07-25T18:26:34.599Z,12.77
2022-07-25T18:29:02.109Z,8.38
2022-07-25T18:31:29.667Z,7.05
2022-07-25T18:33:57.523Z,9.65
2022-07-25T18:36:25.350Z,12.45
2022-07-25T18:38:53.850Z,9.23
2022-07-25T18:41:30.396Z,13.00
2022-07-25T18:43:58.380Z,7.15
2022-07-25T18:46:26.588Z,5.70
2022-07-25T18:48:54.918Z,9.13
2022-07-25T18:51:22.705Z,13.18
2022-07-25T18:53:50.788Z,7.22
2022-07-25T18:56:18.328Z,11.50
2022-07-25T18:58:45.786Z,9.00
2022-07-25T19:01:13.914Z,8.38
2022-07-25T19:03:41.455Z,7.63
2022-07-25T19:06:10.028Z,9.88
2022-07-25T19:08:38.575Z,11.68
2022-07-25T19:11:07.275Z,9.13
2022-07-25T19:13:53.413Z,7.93
2022-07-25T19:16:21.262Z,13.07
2022-07-25T19:18:48.875Z,8.40
2022-07-25T19:21:16.891Z,7.25
2022-07-25T19:23:50.530Z,12.32
2022-07-25T19:26:20.323Z,12.18
2022-07-25T19:28:48.884Z,7.50
2022-07-25T19:31:16.669Z,12.25
2022-07-25T19:33:45.911Z,9.23
2022-07-25T19:36:15.992Z,11.18
2022-07-25T19:38:43.532Z,7.05
2022-07-25T19:41:11.293Z,13.82
2022-07-25T19:43:39.059Z,11.05
2022-07-25T19:46:06.662Z,9.40
2022-07-25T19:48:34.347Z,10.02
2022-07-25T19:51:02.178Z,6.38
2022-07-25T19:53:31.026Z,7.68
2022-07-25T19:55:58.571Z,12.07
2022-07-25T19:58:26.310Z,7.05
2022-07-25T20:00:53.819Z,7.88
2022-07-25T20:03:23.540Z,8.88
2022-07-25T20:05:52.137Z,7.18
2022-07-25T20:08:19.614Z,12.60
2022-07-25T20:10:48.392Z,7.57
2022-07-25T20:13:16.309Z,7.90
2022-07-25T20:15:43.961Z,12.75
2022-07-25T20:18:17.422Z,6.18
2022-07-25T20:20:47.649Z,5.45
2022-07-25T20:23:15.146Z,8.75
2022-07-25T20:25:42.772Z,6.97
2022-07-25T20:28:11.120Z,4.93
2022-07-25T20:30:38.842Z,6.32
2022-07-25T20:33:09.601Z,6.38
2022-07-25T20:35:38.582Z,7.28
2022-07-25T20:38:09.769Z,8.70
2022-07-25T20:40:48.144Z,5.88
2022-07-25T20:43:18.202Z,7.07
2022-07-25T20:45:47.505Z,4.35
2022-07-25T20:48:15.670Z,10.73
2022-07-25T20:50:46.263Z,6.97
2022-07-25T20:53:14.587Z,9.52
2022-07-25T20:55:42.358Z,8.85
2022-07-25T20:58:10.191Z,7.15
2022-07-25T21:00:37.719Z,5.13
2022-07-25T21:03:05.517Z,7.32
2022-07-25T21:05:37.705Z,7.47
2022-07-25T21:08:06.528Z,6.20
2022-07-25T21:10:34.158Z,8.85
2022-07-25T21:13:01.862Z,5.82
2022-07-25T21:15:30.853Z,5.35
2022-07-25T21:17:58.521Z,5.60
2022-07-25T21:20:26.366Z,5.28
2022-07-25T21:22:55.402Z,3.90
2022-07-25T21:25:23.002Z,5.40
2022-07-25T21:27:50.701Z,4.65
2022-07-25T21:30:18.231Z,6.13
2022-07-25T21:32:45.775Z,5.18
2022-07-25T21:35:13.409Z,6.95
2022-07-25T21:37:40.957Z,8.10
2022-07-25T21:40:09.264Z,7.68
2022-07-25T21:42:37.374Z,4.40
2022-07-25T21:45:05.848Z,6.85
2022-07-25T21:47:33.339Z,8.65
2022-07-25T21:50:24.235Z,4.32
2022-07-25T21:52:53.243Z,5.50
2022-07-25T21:55:21.765Z,3.70
2022-07-25T21:57:51.251Z,6.07
2022-07-25T22:00:20.280Z,5.38
2022-07-25T22:02:49.059Z,6.55
2022-07-25T22:05:18.879Z,6.47
2022-07-25T22:07:47.581Z,3.60
2022-07-25T22:10:17.598Z,4.60
2022-07-25T22:12:46.014Z,6.00
2022-07-25T22:15:14.728Z,4.53
2022-07-25T22:17:48.507Z,4.38
2022-07-25T22:20:18.046Z,5.22
2022-07-25T22:22:47.449Z,3.65
2022-07-25T22:25:16.667Z,5.68
2022-07-25T22:27:44.373Z,7.57
2022-07-25T22:30:18.461Z,3.85
2022-07-25T22:32:48.411Z,5.63
2022-07-25T22:35:16.408Z,4.32
2022-07-25T22:37:45.137Z,7.50
2022-07-25T22:40:13.021Z,4.45
2022-07-25T22:42:40.856Z,3.53
2022-07-25T22:45:09.157Z,3.95
2022-07-25T22:47:36.533Z,3.70
2022-07-25T22:50:05.880Z,4.80
2022-07-25T22:52:34.921Z,4.88
2022-07-25T22:55:02.310Z,7.05
2022-07-25T22:57:29.862Z,4.53
2022-07-25T23:00:09.747Z,4.13
2022-07-25T23:02:38.267Z,3.42
2022-07-25T23:05:07.157Z,4.97
2022-07-25T23:07:34.975Z,3.45
2022-07-25T23:10:03.894Z,6.53
2022-07-25T23:12:31.181Z,2.78
2022-07-25T23:14:58.935Z,7.32
2022-07-25T23:17:26.519Z,3.70
2022-07-25T23:19:55.627Z,6.63
2022-07-25T23:22:24.921Z,4.50
2022-07-25T23:24:55.446Z,4.45
2022-07-25T23:27:23.385Z,7.90
2022-07-25T23:29:51.156Z,7.75
2022-07-25T23:32:19.265Z,7.68
2022-07-25T23:34:46.746Z,4.25
2022-07-25T23:37:14.198Z,5.70
2022-07-25T23:39:43.183Z,3.90
2022-07-25T23:42:10.614Z,7.40
2022-07-25T23:44:38.817Z,7.28
2022-07-25T23:47:10.080Z,4.88
2022-07-25T23:49:37.746Z,7.03
2022-07-25T23:52:05.525Z,5.45
2022-07-25T23:54:34.946Z,5.93
2022-07-25T23:57:02.663Z,7.07
2022-07-25T23:59:30.217Z,4.57
